createdAt,value
2024-05-09T00:00:42.635Z,85.3429
2024-05-09T00:01:43.811Z,85.3488
2024-05-09T00:02:44.679Z,85.3724
2024-05-09T00:03:46.072Z,85.3996
2024-05-09T00:04:47.088Z,85.4199
2024-05-09T00:05:47.792Z,85.4416
2024-05-09T00:06:48.457Z,85.4467
2024-05-09T00:07:49.009Z,85.4484
2024-05-09T00:08:49.670Z,85.4363
2024-05-09T00:09:51.355Z,85.4234
2024-05-09T00:10:52.078Z,85.4328
2024-05-09T00:11:52.775Z,85.4511
2024-05-09T00:12:53.258Z,85.4686
2024-05-09T00:13:53.969Z,85.4828
2024-05-09T00:14:54.490Z,85.4867
2024-05-09T00:15:56.359Z,85.5040
2024-05-09T00:16:57.170Z,85.5156
2024-05-09T00:17:57.997Z,85.5243
2024-05-09T00:18:58.936Z,85.5301
2024-05-09T00:19:59.703Z,85.5401
2024-05-09T00:21:00.594Z,85.5547
2024-05-09T00:22:01.483Z,85.5528
2024-05-09T00:23:02.221Z,85.5538
2024-05-09T00:24:03.478Z,85.5632
2024-05-09T00:25:04.194Z,85.5667
2024-05-09T00:26:04.877Z,85.5867
2024-05-09T00:27:05.775Z,85.5918
2024-05-09T00:28:09.055Z,85.5895
2024-05-09T00:29:10.055Z,85.5902
2024-05-09T00:30:14.509Z,85.5955
2024-05-09T00:31:18.346Z,85.5793
2024-05-09T00:32:19.480Z,85.5738
2024-05-09T00:33:20.855Z,85.5712
2024-05-09T00:34:22.148Z,85.5700
2024-05-09T00:35:23.623Z,85.5658
2024-05-09T00:36:24.765Z,85.5615
2024-05-09T00:37:25.841Z,85.5503
2024-05-09T00:38:26.989Z,85.5559
2024-05-09T00:39:28.163Z,85.5665
2024-05-09T00:40:35.766Z,85.5755
2024-05-09T00:41:36.639Z,85.5996
2024-05-09T00:42:38.805Z,85.5925
2024-05-09T00:43:40.062Z,85.5954
2024-05-09T00:44:41.318Z,85.6046
2024-05-09T00:45:42.607Z,85.6113
2024-05-09T00:46:43.905Z,85.6212
2024-05-09T00:47:45.201Z,85.6324
2024-05-09T00:48:46.552Z,85.6503
2024-05-09T00:49:47.664Z,85.6667
2024-05-09T00:50:48.854Z,85.6876
2024-05-09T00:51:49.824Z,85.6926
2024-05-09T00:52:50.892Z,85.7021
2024-05-09T00:53:51.856Z,85.7175
2024-05-09T00:54:52.736Z,85.7272
2024-05-09T00:55:53.581Z,85.7281
2024-05-09T00:56:54.258Z,85.7468
2024-05-09T00:57:55.082Z,85.7566
2024-05-09T00:58:55.841Z,85.7649
2024-05-09T00:59:56.906Z,85.7761
2024-05-09T01:00:57.508Z,85.7844
2024-05-09T01:01:58.295Z,85.7987
2024-05-09T01:02:59.132Z,85.8058
2024-05-09T01:03:59.834Z,85.8100
2024-05-09T01:05:00.562Z,85.8127
2024-05-09T01:06:01.178Z,85.8289
2024-05-09T01:07:01.811Z,85.8438
2024-05-09T01:08:02.453Z,85.8511
2024-05-09T01:09:03.026Z,85.8572
2024-05-09T01:10:05.578Z,85.8633
2024-05-09T01:11:07.881Z,85.8739
2024-05-09T01:12:08.606Z,85.8666
2024-05-09T01:13:09.158Z,85.8713
2024-05-09T01:14:09.616Z,85.8862
2024-05-09T01:15:10.028Z,85.8909
2024-05-09T01:16:10.431Z,85.9062
2024-05-09T01:17:10.867Z,85.9123
2024-05-09T01:18:12.408Z,85.9143
2024-05-09T01:19:14.390Z,85.9190
2024-05-09T01:20:20.216Z,85.9268
2024-05-09T01:21:21.526Z,85.9390
2024-05-09T01:22:21.816Z,85.9543
2024-05-09T01:23:22.131Z,85.9606
2024-05-09T01:24:22.517Z,85.9592
2024-05-09T01:25:22.818Z,85.9651
2024-05-09T01:26:23.053Z,85.9757
2024-05-09T01:27:23.596Z,85.9728
2024-05-09T01:28:23.847Z,85.9817
2024-05-09T01:29:24.233Z,85.9798
2024-05-09T01:30:31.836Z,85.9916
2024-05-09T01:31:31.165Z,85.9958
2024-05-09T01:32:31.627Z,85.9925
2024-05-09T01:33:33.273Z,85.9965
2024-05-09T01:34:33.960Z,86.0030
2024-05-09T01:35:34.286Z,86.0125
2024-05-09T01:36:34.682Z,86.0267
2024-05-09T01:37:34.833Z,86.0442
2024-05-09T01:38:35.263Z,86.0436
2024-05-09T01:39:35.730Z,86.0595
2024-05-09T01:40:38.930Z,86.0636
2024-05-09T01:41:40.860Z,86.0843
2024-05-09T01:42:41.076Z,86.0852
2024-05-09T01:43:41.887Z,86.0800
2024-05-09T01:44:42.136Z,86.0863
2024-05-09T01:45:42.415Z,86.0880
2024-05-09T01:46:42.698Z,86.0989
2024-05-09T01:47:43.159Z,86.1144
2024-05-09T01:48:44.558Z,86.1105
2024-05-09T01:49:44.989Z,86.1258
2024-05-09T01:50:45.494Z,86.1219
2024-05-09T01:51:46.023Z,86.1329
2024-05-09T01:52:46.277Z,86.1545
2024-05-09T01:53:46.505Z,86.1643
2024-05-09T01:54:46.697Z,86.1726
2024-05-09T01:55:46.979Z,86.1779
2024-05-09T01:56:47.337Z,86.1938
2024-05-09T01:57:47.599Z,86.1858
2024-05-09T01:58:47.781Z,86.1786
2024-05-09T01:59:48.008Z,86.1727
2024-05-09T02:00:48.319Z,86.1774
2024-05-09T02:01:56.632Z,86.1834
2024-05-09T02:02:54.946Z,86.1924
2024-05-09T02:03:55.412Z,86.2044
2024-05-09T02:04:56.158Z,86.2223
2024-05-09T02:05:56.517Z,86.2387
2024-05-09T02:06:57.132Z,86.2570
2024-05-09T02:07:57.392Z,86.2771
2024-05-09T02:08:57.546Z,86.2852
2024-05-09T02:09:58.110Z,86.2951
2024-05-09T02:10:58.532Z,86.2958
2024-05-09T02:11:59.086Z,86.3021
2024-05-09T02:12:59.334Z,86.3028
2024-05-09T02:13:59.700Z,86.3137
2024-05-09T02:14:59.934Z,86.3101
2024-05-09T02:16:00.217Z,86.3234
2024-05-09T02:17:00.556Z,86.3349
2024-05-09T02:18:01.121Z,86.3362
2024-05-09T02:19:01.739Z,86.3279
2024-05-09T02:20:02.115Z,86.3282
2024-05-09T02:21:02.720Z,86.3271
2024-05-09T02:22:02.950Z,86.3412
2024-05-09T02:23:03.305Z,86.3402
2024-05-09T02:24:03.627Z,86.3422
2024-05-09T02:25:03.841Z,86.3577
2024-05-09T02:26:04.497Z,86.3600
2024-05-09T02:27:04.741Z,86.3743
2024-05-09T02:28:05.080Z,86.3726
2024-05-09T02:29:05.393Z,86.3763
2024-05-09T02:30:15.150Z,86.3846
2024-05-09T02:31:13.510Z,86.3855
2024-05-09T02:32:14.104Z,86.3819
2024-05-09T02:33:15.002Z,86.3854
2024-05-09T02:34:16.310Z,86.3848
2024-05-09T02:35:16.604Z,86.3911
2024-05-09T02:36:16.771Z,86.3929
2024-05-09T02:37:16.937Z,86.4009
2024-05-09T02:38:18.221Z,86.4028
2024-05-09T02:39:18.438Z,86.4078
2024-05-09T02:40:25.665Z,86.4098
2024-05-09T02:41:25.977Z,86.4149
2024-05-09T02:42:27.204Z,86.4227
2024-05-09T02:43:27.464Z,86.4292
2024-05-09T02:44:27.763Z,86.4313
2024-05-09T02:45:28.065Z,86.4362
2024-05-09T02:46:28.287Z,86.4172
2024-05-09T02:47:28.808Z,86.4323
2024-05-09T02:48:29.149Z,86.4343
2024-05-09T02:49:29.573Z,86.4210
2024-05-09T02:50:37.036Z,86.4267
2024-05-09T02:51:36.306Z,86.4328
2024-05-09T02:52:36.596Z,86.4420
2024-05-09T02:53:36.903Z,86.4482
2024-05-09T02:54:37.241Z,86.4469
2024-05-09T02:55:37.533Z,86.4575
2024-05-09T02:56:37.991Z,86.4563
2024-05-09T02:57:38.413Z,86.4561
2024-05-09T02:58:38.795Z,86.4532
2024-05-09T02:59:39.078Z,86.4621
2024-05-09T03:00:41.666Z,86.4620
2024-05-09T03:01:45.743Z,86.4661
2024-05-09T03:02:46.164Z,86.4747
2024-05-09T03:03:46.559Z,86.4715
2024-05-09T03:04:47.024Z,86.4788
2024-05-09T03:05:47.495Z,86.4879
2024-05-09T03:06:47.945Z,86.4894
2024-05-09T03:07:48.124Z,86.4996
2024-05-09T03:08:48.420Z,86.5055
2024-05-09T03:09:48.606Z,86.5130
2024-05-09T03:10:49.097Z,86.5178
2024-05-09T03:11:49.510Z,86.5280
2024-05-09T03:12:49.814Z,86.5250
2024-05-09T03:13:50.024Z,86.5278
2024-05-09T03:14:50.297Z,86.5381
2024-05-09T03:15:50.722Z,86.5440
2024-05-09T03:16:51.066Z,86.5365
2024-05-09T03:17:51.696Z,86.5510
2024-05-09T03:18:52.075Z,86.5462
2024-05-09T03:19:52.413Z,86.5568
2024-05-09T03:20:52.766Z,86.5565
2024-05-09T03:21:52.943Z,86.5546
2024-05-09T03:22:56.323Z,86.5603
2024-05-09T03:23:57.513Z,86.5584
2024-05-09T03:24:57.731Z,86.5703
2024-05-09T03:25:58.057Z,86.5806
2024-05-09T03:26:58.441Z,86.5864
2024-05-09T03:27:58.686Z,86.5863
2024-05-09T03:28:58.969Z,86.5894
2024-05-09T03:29:59.157Z,86.5999
2024-05-09T03:30:59.321Z,86.6074
2024-05-09T03:31:59.732Z,86.6070
2024-05-09T03:33:00.341Z,86.5995
2024-05-09T03:34:00.827Z,86.5933
2024-05-09T03:35:01.087Z,86.6005
2024-05-09T03:36:01.249Z,86.6077
2024-05-09T03:37:01.531Z,86.6183
2024-05-09T03:38:01.777Z,86.6242
2024-05-09T03:39:02.097Z,86.6332
2024-05-09T03:40:02.875Z,86.6391
2024-05-09T03:41:03.271Z,86.6317
2024-05-09T03:42:03.612Z,86.6176
2024-05-09T03:43:03.830Z,86.6183
2024-05-09T03:44:04.083Z,86.6281
2024-05-09T03:45:04.328Z,86.6384
2024-05-09T03:46:04.515Z,86.6516
2024-05-09T03:47:04.785Z,86.6768
2024-05-09T03:48:05.522Z,86.6905
2024-05-09T03:49:05.893Z,86.7045
2024-05-09T03:50:11.962Z,86.6942
2024-05-09T03:51:12.509Z,86.6867
2024-05-09T03:52:12.809Z,86.6898
2024-05-09T03:53:13.184Z,86.6901
2024-05-09T03:54:13.528Z,86.6965
2024-05-09T03:55:13.725Z,86.7085
2024-05-09T03:56:14.020Z,86.7131
2024-05-09T03:57:14.213Z,86.7119
2024-05-09T03:58:14.564Z,86.7150
2024-05-09T03:59:14.896Z,86.7150
2024-05-09T04:00:21.950Z,86.7119
2024-05-09T04:01:21.414Z,86.7301
2024-05-09T04:02:21.811Z,86.7349
2024-05-09T04:03:22.565Z,86.7355
2024-05-09T04:04:22.959Z,86.7435
2024-05-09T04:05:23.192Z,86.7503
2024-05-09T04:06:23.418Z,86.7477
2024-05-09T04:07:23.631Z,86.7507
2024-05-09T04:08:23.901Z,86.7527
2024-05-09T04:09:24.166Z,86.7648
2024-05-09T04:10:31.181Z,86.7684
2024-05-09T04:11:30.467Z,86.7778
2024-05-09T04:12:30.844Z,86.7738
2024-05-09T04:13:31.020Z,86.7685
2024-05-09T04:14:31.319Z,86.7733
2024-05-09T04:15:31.866Z,86.7765
2024-05-09T04:16:32.344Z,86.7737
2024-05-09T04:17:33.006Z,86.7758
2024-05-09T04:18:33.451Z,86.7763
2024-05-09T04:19:33.722Z,86.7782
2024-05-09T04:20:39.007Z,86.7797
2024-05-09T04:21:40.760Z,86.7815
2024-05-09T04:22:52.957Z,86.7761
2024-05-09T04:23:53.162Z,86.7736
2024-05-09T04:24:53.295Z,86.7732
2024-05-09T04:26:05.285Z,86.7737
2024-05-09T04:27:05.389Z,86.7777
2024-05-09T04:28:17.367Z,86.7761
2024-05-09T04:29:17.494Z,86.7891
2024-05-09T04:30:26.221Z,86.7786
2024-05-09T04:31:24.540Z,86.7767
2024-05-09T04:32:25.467Z,86.7748
2024-05-09T04:33:25.802Z,86.7777
2024-05-09T04:34:26.121Z,86.7743
2024-05-09T04:35:26.372Z,86.7800
2024-05-09T04:36:26.568Z,86.7846
2024-05-09T04:37:26.670Z,86.8027
2024-05-09T04:38:26.672Z,86.8028
2024-05-09T04:39:26.817Z,86.7970
2024-05-09T04:40:33.396Z,86.8049
2024-05-09T04:41:34.028Z,86.8154
2024-05-09T04:42:34.175Z,86.8249
2024-05-09T04:43:34.337Z,86.8256
2024-05-09T04:44:34.607Z,86.8263
2024-05-09T04:45:35.072Z,86.8314
2024-05-09T04:46:35.479Z,86.8337
2024-05-09T04:47:35.861Z,86.8328
2024-05-09T04:48:36.221Z,86.8328
2024-05-09T04:49:37.504Z,86.8243
2024-05-09T04:50:39.307Z,86.8290
2024-05-09T04:51:40.356Z,86.8234
2024-05-09T04:52:40.510Z,86.8236
2024-05-09T04:53:40.936Z,86.8236
2024-05-09T04:54:41.258Z,86.8296
2024-05-09T04:55:41.438Z,86.8371
2024-05-09T04:56:41.562Z,86.8436
2024-05-09T04:57:41.754Z,86.8518
2024-05-09T04:58:42.128Z,86.8495
2024-05-09T04:59:42.284Z,86.8503
2024-05-09T05:00:42.613Z,86.8496
2024-05-09T05:01:42.779Z,86.8397
2024-05-09T05:02:43.229Z,86.8541
2024-05-09T05:03:43.596Z,86.8584
2024-05-09T05:04:43.985Z,86.8685
2024-05-09T05:05:45.441Z,86.8830
2024-05-09T05:06:46.348Z,86.8825
2024-05-09T05:07:46.504Z,86.8775
2024-05-09T05:08:46.718Z,86.8707
2024-05-09T05:09:46.847Z,86.8756
2024-05-09T05:10:47.710Z,86.8696
2024-05-09T05:11:48.619Z,86.8834
2024-05-09T05:12:48.763Z,86.8942
2024-05-09T05:13:48.852Z,86.9022
2024-05-09T05:14:49.511Z,86.9132
2024-05-09T05:15:50.536Z,86.9184
2024-05-09T05:16:50.568Z,86.9286
2024-05-09T05:18:02.753Z,86.9478
2024-05-09T05:19:02.946Z,86.9492
2024-05-09T05:20:04.707Z,86.9501
2024-05-09T05:21:05.032Z,86.9456
2024-05-09T05:22:05.129Z,86.9513
2024-05-09T05:23:05.205Z,86.9496
2024-05-09T05:24:05.285Z,86.9527
2024-05-09T05:25:05.361Z,86.9527
2024-05-09T05:26:17.309Z,86.9526
2024-05-09T05:27:17.330Z,86.9560
2024-05-09T05:28:29.270Z,86.9569
2024-05-09T05:29:29.398Z,86.9433
2024-05-09T05:30:34.443Z,86.9500
2024-05-09T05:31:36.467Z,86.9483
2024-05-09T05:32:36.583Z,86.9611
2024-05-09T05:33:36.944Z,86.9637
2024-05-09T05:34:37.044Z,86.9752
2024-05-09T05:35:37.196Z,86.9688
2024-05-09T05:36:37.299Z,86.9786
2024-05-09T05:37:37.374Z,86.9854
2024-05-09T05:38:37.523Z,86.9952
2024-05-09T05:39:37.532Z,87.0080
2024-05-09T05:40:38.764Z,87.0058
2024-05-09T05:41:40.077Z,87.0098
2024-05-09T05:42:40.131Z,87.0139
2024-05-09T05:43:40.315Z,87.0238
2024-05-09T05:44:40.452Z,87.0168
2024-05-09T05:45:40.562Z,87.0248
2024-05-09T05:46:41.659Z,87.0351
2024-05-09T05:47:42.139Z,87.0577
2024-05-09T05:48:42.495Z,87.0683
2024-05-09T05:49:42.683Z,87.0637
2024-05-09T05:50:42.855Z,87.0739
2024-05-09T05:51:43.176Z,87.0692
2024-05-09T05:52:43.440Z,87.0734
2024-05-09T05:53:43.555Z,87.0788
2024-05-09T05:54:43.705Z,87.0833
2024-05-09T05:55:43.890Z,87.0919
2024-05-09T05:56:44.141Z,87.0943
2024-05-09T05:57:44.367Z,87.0825
2024-05-09T05:58:44.575Z,87.0848
2024-05-09T05:59:44.800Z,87.0957
2024-05-09T06:00:45.044Z,87.1082
2024-05-09T06:01:45.472Z,87.1193
2024-05-09T06:02:45.868Z,87.1199
2024-05-09T06:03:47.335Z,87.1277
2024-05-09T06:04:47.646Z,87.1310
2024-05-09T06:05:47.866Z,87.1300
2024-05-09T06:06:48.115Z,87.1381
2024-05-09T06:07:49.287Z,87.1523
2024-05-09T06:08:49.388Z,87.1621
2024-05-09T06:09:50.652Z,87.1661
2024-05-09T06:10:50.805Z,87.1721
2024-05-09T06:11:52.151Z,87.1735
2024-05-09T06:12:52.130Z,87.1715
2024-05-09T06:13:52.236Z,87.1666
2024-05-09T06:14:52.407Z,87.1643
2024-05-09T06:15:52.454Z,87.1823
2024-05-09T06:16:54.102Z,87.1874
2024-05-09T06:17:55.752Z,87.2002
2024-05-09T06:18:56.567Z,87.2118
2024-05-09T06:19:56.615Z,87.2326
2024-05-09T06:20:56.851Z,87.2284
2024-05-09T06:21:56.919Z,87.2347
2024-05-09T06:22:56.926Z,87.2380
2024-05-09T06:23:56.984Z,87.2422
2024-05-09T06:25:08.814Z,87.2269
2024-05-09T06:26:20.716Z,87.2115
2024-05-09T06:27:32.577Z,87.2129
2024-05-09T06:28:32.560Z,87.2263
2024-05-09T06:29:44.384Z,87.2202
2024-05-09T06:30:44.341Z,87.2267
2024-05-09T06:31:59.495Z,87.2362
2024-05-09T06:33:00.366Z,87.2415
2024-05-09T06:34:12.536Z,87.2448
2024-05-09T06:35:12.602Z,87.2440
2024-05-09T06:36:13.521Z,87.2306
2024-05-09T06:37:25.362Z,87.2355
2024-05-09T06:38:37.268Z,87.2404
2024-05-09T06:39:37.183Z,87.2468
2024-05-09T06:40:49.034Z,87.2434
2024-05-09T06:42:00.823Z,87.2369
2024-05-09T06:43:12.682Z,87.2403
2024-05-09T06:44:12.695Z,87.2375
2024-05-09T06:45:12.716Z,87.2416
2024-05-09T06:46:24.525Z,87.2482
2024-05-09T06:47:36.534Z,87.2596
2024-05-09T06:48:36.767Z,87.2631
2024-05-09T06:49:36.815Z,87.2703
2024-05-09T06:50:38.347Z,87.2979
2024-05-09T06:51:39.594Z,87.3067
2024-05-09T06:52:41.517Z,87.3201
2024-05-09T06:53:41.486Z,87.3384
2024-05-09T06:54:41.577Z,87.3241
2024-05-09T06:55:41.428Z,87.3116
2024-05-09T06:56:53.211Z,87.2956
2024-05-09T06:58:04.938Z,87.2708
2024-05-09T06:59:16.743Z,87.2740
2024-05-09T07:00:35.599Z,87.2877
2024-05-09T07:01:35.287Z,87.2939
2024-05-09T07:02:47.066Z,87.3152
2024-05-09T07:03:47.135Z,87.3343
2024-05-09T07:04:47.241Z,87.3619
2024-05-09T07:05:48.569Z,87.3911
2024-05-09T07:06:50.937Z,87.4008
2024-05-09T07:07:50.923Z,87.4207
2024-05-09T07:08:52.448Z,87.4264
2024-05-09T07:09:52.626Z,87.4213
2024-05-09T07:10:52.784Z,87.4243
2024-05-09T07:11:52.984Z,87.4337
2024-05-09T07:12:53.234Z,87.4353
2024-05-09T07:13:53.207Z,87.4415
2024-05-09T07:14:53.583Z,87.4494
2024-05-09T07:15:53.516Z,87.4392
2024-05-09T07:17:05.404Z,87.4211
2024-05-09T07:18:05.497Z,87.4150
2024-05-09T07:19:05.686Z,87.4069
2024-05-09T07:20:08.963Z,87.3894
2024-05-09T07:21:09.366Z,87.3733
2024-05-09T07:22:21.156Z,87.3747
2024-05-09T07:23:32.905Z,87.3804
2024-05-09T07:24:44.778Z,87.3828
2024-05-09T07:25:56.587Z,87.3747
2024-05-09T07:27:08.266Z,87.3756
2024-05-09T07:28:19.960Z,87.3777
2024-05-09T07:29:32.989Z,87.3664
2024-05-09T07:30:35.171Z,87.3571
2024-05-09T07:31:35.215Z,87.3500
2024-05-09T07:32:47.096Z,87.3430
2024-05-09T07:33:47.148Z,87.3292
2024-05-09T07:34:47.192Z,87.3123
2024-05-09T07:35:58.933Z,87.2964
2024-05-09T07:37:10.643Z,87.2738
2024-05-09T07:38:22.512Z,87.2484
2024-05-09T07:39:22.670Z,87.2432
2024-05-09T07:40:36.644Z,87.2383
2024-05-09T07:41:37.486Z,87.2233
2024-05-09T07:42:37.541Z,87.2183
2024-05-09T07:43:50.276Z,87.2133
2024-05-09T07:44:51.277Z,87.2279
2024-05-09T07:46:48.234Z,87.2327
2024-05-09T07:48:14.696Z,87.2456
2024-05-09T07:49:45.087Z,87.2464
2024-05-09T07:53:08.679Z,87.2411
2024-05-09T07:53:33.658Z,87.2333
2024-05-09T07:53:47.320Z,87.2208
2024-05-09T07:54:49.818Z,87.2234
2024-05-09T07:55:51.072Z,87.2195
2024-05-09T07:56:51.221Z,87.2140
2024-05-09T07:57:51.609Z,87.2011
2024-05-09T07:58:52.172Z,87.1884
2024-05-09T07:59:52.294Z,87.1794
2024-05-09T08:00:52.379Z,87.1841
2024-05-09T08:01:52.464Z,87.1766
2024-05-09T08:02:52.730Z,87.1584
2024-05-09T08:03:53.090Z,87.1498
2024-05-09T08:04:53.295Z,87.1404
2024-05-09T08:05:54.453Z,87.1391
2024-05-09T08:06:54.568Z,87.1276
2024-05-09T08:07:55.583Z,87.1051
2024-05-09T08:09:11.116Z,87.0774
2024-05-09T08:10:15.471Z,87.0338
2024-05-09T08:11:18.933Z,86.9845
2024-05-09T08:12:30.847Z,86.9395
2024-05-09T08:13:42.585Z,86.9016
2024-05-09T08:14:56.198Z,86.8770
2024-05-09T08:16:07.972Z,86.8528
2024-05-09T08:17:19.800Z,86.8391
2024-05-09T08:18:31.883Z,86.8084
2024-05-09T08:19:32.006Z,86.7893
2024-05-09T08:20:43.727Z,86.7827
2024-05-09T08:21:55.540Z,86.7853
2024-05-09T08:23:07.336Z,86.7872
2024-05-09T08:24:19.128Z,86.7911
2024-05-09T08:25:30.916Z,86.7951
2024-05-09T08:26:42.682Z,86.8063
2024-05-09T08:27:54.452Z,86.8065
2024-05-09T08:28:54.505Z,86.7993
2024-05-09T08:31:17.970Z,86.8093
2024-05-09T08:32:29.938Z,86.8165
2024-05-09T08:33:31.236Z,86.8313
2024-05-09T08:34:31.216Z,86.8385
2024-05-09T08:35:31.293Z,86.8231
2024-05-09T08:36:43.163Z,86.8225
2024-05-09T08:37:43.278Z,86.8184
2024-05-09T08:38:43.386Z,86.8205
2024-05-09T08:39:43.369Z,86.8164
2024-05-09T08:40:43.433Z,86.8071
2024-05-09T08:41:44.359Z,86.8233
2024-05-09T08:42:56.166Z,86.8262
2024-05-09T08:44:07.884Z,86.8347
2024-05-09T08:45:19.617Z,86.8369
2024-05-09T08:46:31.361Z,86.8263
2024-05-09T08:47:31.787Z,86.8268
2024-05-09T08:48:33.095Z,86.8003
2024-05-09T08:49:33.263Z,86.7849
2024-05-09T08:50:38.535Z,86.7549
2024-05-09T08:51:41.058Z,86.7154
2024-05-09T08:52:41.093Z,86.6788
2024-05-09T08:53:41.052Z,86.6515
2024-05-09T08:54:52.846Z,86.6180
2024-05-09T08:56:04.670Z,86.5940
2024-05-09T08:57:16.523Z,86.5642
2024-05-09T08:58:16.797Z,86.5338
2024-05-09T08:59:16.831Z,86.5228
2024-05-09T09:00:35.948Z,86.5109
2024-05-09T09:01:34.398Z,86.5099
2024-05-09T09:02:34.694Z,86.5016
2024-05-09T09:03:34.815Z,86.5080
2024-05-09T09:04:34.955Z,86.5002
2024-05-09T09:05:46.750Z,86.4952
2024-05-09T09:06:59.767Z,86.4826
2024-05-09T09:08:00.294Z,86.4958
2024-05-09T09:09:12.302Z,86.4981
2024-05-09T09:10:29.884Z,86.4799
2024-05-09T09:11:31.614Z,86.4761
2024-05-09T09:12:31.620Z,86.4778
2024-05-09T09:13:43.437Z,86.4806
2024-05-09T09:14:55.183Z,86.4887
2024-05-09T09:16:07.045Z,86.5018
2024-05-09T09:17:07.003Z,86.5140
2024-05-09T09:18:19.272Z,86.5412
2024-05-09T09:19:19.432Z,86.5658
2024-05-09T09:20:26.269Z,86.5716
2024-05-09T09:21:25.286Z,86.5736
2024-05-09T09:22:38.094Z,86.5661
2024-05-09T09:23:38.037Z,86.5619
2024-05-09T09:24:49.895Z,86.5382
2024-05-09T09:26:01.751Z,86.4994
2024-05-09T09:27:13.606Z,86.4495
2024-05-09T09:28:25.427Z,86.4000
2024-05-09T09:29:37.211Z,86.3887
2024-05-09T09:30:48.973Z,86.3897
2024-05-09T09:32:00.701Z,86.3627
2024-05-09T09:33:12.550Z,86.3263
2024-05-09T09:34:24.642Z,86.2751
2024-05-09T09:35:24.556Z,86.2427
2024-05-09T09:36:36.292Z,86.2029
2024-05-09T09:37:47.984Z,86.1746
2024-05-09T09:38:59.758Z,86.1454
2024-05-09T09:40:13.311Z,86.1163
2024-05-09T09:41:13.609Z,86.0995
2024-05-09T09:42:25.299Z,86.0938
2024-05-09T09:43:37.110Z,86.0822
2024-05-09T09:44:57.794Z,86.0417
2024-05-09T09:45:54.712Z,86.0242
2024-05-09T09:47:07.120Z,85.9913
2024-05-09T09:48:07.036Z,85.9828
2024-05-09T09:49:19.826Z,85.9622
2024-05-09T09:50:34.572Z,85.9472
2024-05-09T09:51:35.447Z,85.9402
2024-05-09T09:52:35.395Z,85.9263
2024-05-09T09:53:47.208Z,85.9147
2024-05-09T09:54:58.994Z,85.8929
2024-05-09T09:55:58.975Z,85.8780
2024-05-09T09:57:10.636Z,85.8665
2024-05-09T09:58:22.395Z,85.8444
2024-05-09T09:59:34.177Z,85.7778
2024-05-09T10:00:46.328Z,85.6551
2024-05-09T10:01:46.338Z,85.4919
2024-05-09T10:02:58.084Z,85.3661
2024-05-09T10:04:09.812Z,85.3175
2024-05-09T10:05:21.754Z,85.2934
2024-05-09T10:06:21.670Z,85.2668
2024-05-09T10:07:22.508Z,85.2529
2024-05-09T10:08:34.164Z,85.2169
2024-05-09T10:09:45.895Z,85.1738
2024-05-09T10:10:58.668Z,85.1403
2024-05-09T10:12:10.402Z,85.0989
2024-05-09T10:13:22.054Z,84.8369
2024-05-09T10:14:33.702Z,84.5383
2024-05-09T10:15:34.580Z,84.5150
2024-05-09T10:16:46.198Z,84.5267
2024-05-09T10:17:57.908Z,84.5427
2024-05-09T10:19:09.671Z,84.5442
2024-05-09T10:20:27.715Z,84.5410
2024-05-09T10:21:27.923Z,84.5590
2024-05-09T10:22:39.529Z,84.5614
2024-05-09T10:23:51.209Z,84.5537
2024-05-09T10:25:04.821Z,84.5521
2024-05-09T10:26:05.922Z,84.5477
2024-05-09T10:27:06.127Z,84.5094
2024-05-09T10:28:17.788Z,84.3978
2024-05-09T10:29:18.797Z,84.3031
2024-05-09T10:30:35.801Z,84.2344
2024-05-09T10:31:36.246Z,84.1714
2024-05-09T10:32:47.959Z,84.1266
2024-05-09T10:33:59.995Z,84.0340
2024-05-09T10:35:00.082Z,83.9832
2024-05-09T10:36:00.009Z,83.9399
2024-05-09T10:37:11.623Z,83.8785
2024-05-09T10:38:23.202Z,83.7049
2024-05-09T10:39:34.940Z,83.6181
2024-05-09T10:40:46.526Z,83.6577
2024-05-09T10:41:58.189Z,83.6980
2024-05-09T10:43:09.838Z,83.7013
2024-05-09T10:44:21.359Z,83.5128
2024-05-09T10:45:32.957Z,83.4421
2024-05-09T10:46:44.553Z,83.5582
2024-05-09T10:47:56.377Z,83.6683
2024-05-09T10:49:08.186Z,83.7371
2024-05-09T10:50:25.552Z,83.7909
2024-05-09T10:51:25.773Z,83.7405
2024-05-09T10:52:37.352Z,83.6779
2024-05-09T10:53:48.954Z,83.7408
2024-05-09T10:55:01.694Z,83.8125
2024-05-09T10:56:04.041Z,83.8164
2024-05-09T10:57:15.591Z,83.7956
2024-05-09T10:58:27.238Z,83.7354
2024-05-09T10:59:38.950Z,83.6458
2024-05-09T11:00:50.582Z,83.5655
2024-05-09T11:02:02.415Z,83.4748
2024-05-09T11:03:14.043Z,83.2739
2024-05-09T11:04:25.714Z,83.0231
2024-05-09T11:05:37.563Z,82.9452
2024-05-09T11:06:37.498Z,82.9708
2024-05-09T11:07:37.447Z,82.9553
2024-05-09T11:08:49.055Z,82.8559
2024-05-09T11:10:00.801Z,82.7942
2024-05-09T11:11:12.463Z,82.7880
2024-05-09T11:12:24.987Z,82.7745
2024-05-09T11:13:24.984Z,82.7156
2024-05-09T11:14:36.570Z,82.6759
2024-05-09T11:15:48.213Z,82.6984
2024-05-09T11:16:59.970Z,82.7075
2024-05-09T11:18:11.792Z,82.6589
2024-05-09T11:19:11.787Z,82.6094
2024-05-09T11:20:29.444Z,82.5987
2024-05-09T11:21:29.312Z,82.5033
2024-05-09T11:22:41.627Z,82.3406
2024-05-09T11:23:41.834Z,82.3280
2024-05-09T11:24:41.703Z,82.3356
2024-05-09T11:25:53.390Z,82.2761
2024-05-09T11:27:05.031Z,82.1424
2024-05-09T11:28:16.833Z,82.0550
2024-05-09T11:29:19.236Z,82.0005
2024-05-09T11:30:26.559Z,81.6936
2024-05-09T11:31:25.450Z,81.4494
2024-05-09T11:32:25.528Z,81.4668
2024-05-09T11:33:25.492Z,81.5279
2024-05-09T11:34:37.095Z,81.5717
2024-05-09T11:35:48.713Z,81.5882
2024-05-09T11:37:00.433Z,81.5533
2024-05-09T11:38:12.088Z,81.6238
2024-05-09T11:39:23.907Z,81.6666
2024-05-09T11:40:25.998Z,81.6035
2024-05-09T11:41:29.323Z,81.5372
2024-05-09T11:42:40.873Z,81.0597
2024-05-09T11:43:52.617Z,80.8214
2024-05-09T11:45:04.147Z,80.8283
2024-05-09T11:46:15.903Z,80.9406
2024-05-09T11:47:27.588Z,81.0490
2024-05-09T11:48:39.380Z,80.9706
2024-05-09T11:49:39.416Z,80.9352
2024-05-09T11:50:51.064Z,80.8467
2024-05-09T11:52:02.710Z,80.9219
2024-05-09T11:53:14.265Z,80.9253
2024-05-09T11:54:25.821Z,80.6883
2024-05-09T11:55:37.334Z,80.6947
2024-05-09T11:56:48.986Z,80.7356
2024-05-09T11:58:00.611Z,80.7077
2024-05-09T11:59:12.271Z,80.7987
2024-05-09T12:00:33.564Z,80.9284
2024-05-09T12:01:29.938Z,80.8479
2024-05-09T12:02:29.909Z,80.9391
2024-05-09T12:03:41.682Z,81.0039
2024-05-09T12:04:53.424Z,81.0118
2024-05-09T12:05:53.325Z,81.0006
2024-05-09T12:07:05.043Z,81.0328
2024-05-09T12:08:16.684Z,81.0083
2024-05-09T12:09:28.395Z,80.8064
2024-05-09T12:10:40.127Z,80.6995
2024-05-09T12:11:51.919Z,80.6192
2024-05-09T12:13:05.549Z,80.6904
2024-05-09T12:14:06.909Z,80.6829
2024-05-09T12:15:18.578Z,80.4364
2024-05-09T12:16:30.337Z,80.0430
2024-05-09T12:17:31.228Z,80.2678
2024-05-09T12:18:31.178Z,80.2978
2024-05-09T12:19:42.831Z,80.0010
2024-05-09T12:20:54.622Z,80.0095
2024-05-09T12:22:06.286Z,80.1209
2024-05-09T12:23:17.883Z,80.2154
2024-05-09T12:24:29.508Z,80.2810
2024-05-09T12:25:41.237Z,80.2082
2024-05-09T12:26:52.945Z,79.9163
2024-05-09T12:28:04.647Z,79.9333
2024-05-09T12:29:16.280Z,79.9958
2024-05-09T12:30:35.760Z,80.0221
2024-05-09T12:31:34.349Z,80.0870
2024-05-09T12:32:46.531Z,79.9232
2024-05-09T12:33:46.541Z,79.7851
2024-05-09T12:34:46.427Z,79.5756
2024-05-09T12:35:58.158Z,79.6442
2024-05-09T12:37:10.176Z,79.2930
2024-05-09T12:38:10.127Z,78.6384
2024-05-09T12:39:21.784Z,77.7427
2024-05-09T12:40:36.971Z,78.0625
2024-05-09T12:41:39.271Z,78.3706
2024-05-09T12:42:40.002Z,78.3615
2024-05-09T12:43:51.569Z,78.4505
2024-05-09T12:45:03.199Z,78.5577
2024-05-09T12:46:14.923Z,78.5831
2024-05-09T12:47:15.192Z,78.5718
2024-05-09T12:48:27.156Z,78.6840
2024-05-09T12:49:27.164Z,78.6565
2024-05-09T12:50:32.214Z,78.6216
2024-05-09T12:51:33.327Z,78.7256
2024-05-09T12:52:45.096Z,78.7905
2024-05-09T12:53:45.942Z,78.8274
2024-05-09T12:54:57.703Z,78.8341
2024-05-09T12:56:01.843Z,78.7430
2024-05-09T12:57:03.485Z,78.4544
2024-05-09T12:58:15.485Z,78.2116